Time;durP1;ratioP1;P1;durP2;ratioP2;P2;SDS_P1;SDS_P2;PMS_P1;PMS_P2;Temp;Humidity;BMP_temperature;BMP_pressure;BME280_temperature;BME280_humidity;BME280_pressure;Samples;Min_cycle;Max_cycle;Signal;HPM_P1;HPM_P2
2022/11/27 00:00:02;;;;;;;1.60;1.50;;;5.90;99.90;;;;;;5033494;28;20221;-64
2022/11/27 00:02:29;;;;;;;1.83;1.73;;;5.90;99.90;;;;;;5033064;28;20232;-63
2022/11/27 00:04:57;;;;;;;1.83;1.73;;;5.80;99.90;;;;;;5033995;28;20207;-64
2022/11/27 00:07:24;;;;;;;3.17;1.70;;;5.80;99.90;;;;;;5033208;28;20720;-64
2022/11/27 00:09:50;;;;;;;1.90;1.77;;;5.80;99.90;;;;;;5033679;28;20200;-65
2022/11/27 00:12:17;;;;;;;1.40;1.40;;;5.70;99.90;;;;;;5033328;28;20272;-65
2022/11/27 00:14:44;;;;;;;1.40;1.40;;;5.60;99.90;;;;;;5033298;28;20201;-65
2022/11/27 00:17:11;;;;;;;1.90;1.80;;;5.50;99.90;;;;;;5032777;28;20367;-64
2022/11/27 00:19:38;;;;;;;1.83;1.40;;;5.50;99.90;;;;;;5033700;28;20231;-65
2022/11/27 00:22:06;;;;;;;1.57;1.23;;;5.40;99.90;;;;;;5033004;28;20200;-65
2022/11/27 00:24:33;;;;;;;1.50;1.40;;;5.40;99.90;;;;;;5032778;28;20204;-64
2022/11/27 00:27:00;;;;;;;1.70;1.60;;;5.40;99.90;;;;;;5033087;28;20224;-63
2022/11/27 00:29:28;;;;;;;2.43;2.00;;;5.40;99.90;;;;;;5031416;28;20240;-63
2022/11/27 00:31:55;;;;;;;1.70;1.60;;;5.50;99.90;;;;;;5035862;28;20221;-64
2022/11/27 00:34:22;;;;;;;1.83;1.73;;;5.40;99.90;;;;;;5034543;28;20201;-64
2022/11/27 00:36:49;;;;;;;1.77;1.67;;;5.50;99.90;;;;;;5032828;28;20224;-64
2022/11/27 00:39:18;;;;;;;1.67;1.57;;;5.50;99.90;;;;;;5032668;28;20325;-63
2022/11/27 00:41:45;;;;;;;2.33;2.00;;;5.50;99.90;;;;;;5035430;28;20199;-64
2022/11/27 00:44:13;;;;;;;2.60;2.07;;;5.50;99.90;;;;;;5036163;28;20687;-64
2022/11/27 00:46:41;;;;;;;1.70;1.60;;;5.70;99.90;;;;;;5035038;28;20239;-65
2022/11/27 00:49:10;;;;;;;1.80;1.70;;;5.70;99.90;;;;;;5034622;28;20200;-65
2022/11/27 00:51:36;;;;;;;1.80;1.70;;;5.70;99.90;;;;;;5032417;28;20896;-65
2022/11/27 00:54:04;;;;;;;1.80;1.70;;;5.80;99.90;;;;;;5033328;28;20631;-65
2022/11/27 00:56:35;;;;;;;2.30;2.20;;;5.80;99.90;;;;;;5032416;28;20586;-63
2022/11/27 00:59:02;;;;;;;2.33;2.23;;;5.90;99.90;;;;;;5032814;28;20288;-65
2022/11/27 01:01:31;;;;;;;1.90;1.80;;;5.90;99.90;;;;;;5034074;28;20193;-65
2022/11/27 01:03:59;;;;;;;1.23;1.23;;;5.90;99.90;;;;;;5034388;28;20208;-65
2022/11/27 01:06:26;;;;;;;1.40;1.30;;;5.80;99.90;;;;;;5028582;28;20220;-65
2022/11/27 01:08:54;;;;;;;1.10;1.10;;;5.70;99.90;;;;;;5040591;28;20231;-65
2022/11/27 01:11:24;;;;;;;1.07;1.07;;;5.70;99.90;;;;;;5035284;28;20255;-64
2022/11/27 01:13:53;;;;;;;1.00;1.00;;;5.60;99.90;;;;;;5037775;28;20201;-64
2022/11/27 01:16:22;;;;;;;1.00;1.00;;;5.60;99.90;;;;;;5035335;28;20235;-64
2022/11/27 01:18:51;;;;;;;1.10;1.10;;;5.50;99.90;;;;;;5033136;28;20289;-64
2022/11/27 01:21:20;;;;;;;1.13;1.13;;;5.50;99.90;;;;;;5032365;28;20208;-65
2022/11/27 01:23:48;;;;;;;0.80;0.80;;;5.50;99.90;;;;;;5036123;28;20272;-65
2022/11/27 01:26:17;;;;;;;0.90;0.90;;;5.40;99.90;;;;;;5040699;28;20308;-65
2022/11/27 01:28:45;;;;;;;0.97;0.97;;;5.40;99.90;;;;;;5038886;28;20204;-65
2022/11/27 01:31:15;;;;;;;1.00;1.00;;;5.40;99.90;;;;;;5031841;28;20247;-65
2022/11/27 01:33:42;;;;;;;1.10;1.07;;;5.40;99.90;;;;;;5034240;28;20279;-65
2022/11/27 01:36:11;;;;;;;1.13;1.13;;;5.40;99.90;;;;;;5034588;28;20228;-63
2022/11/27 01:38:38;;;;;;;1.03;1.03;;;5.40;99.90;;;;;;5033877;28;20211;-63
2022/11/27 01:41:08;;;;;;;1.10;1.10;;;5.50;99.90;;;;;;5032662;28;20292;-65
2022/11/27 01:43:43;;;;;;;1.30;1.20;;;5.40;99.90;;;;;;5034157;28;20201;-64
2022/11/27 01:46:26;;;;;;;4.30;1.63;;;5.40;99.90;;;;;;5035505;28;20311;-64
2022/11/27 01:48:55;;;;;;;2.00;1.80;;;5.30;99.90;;;;;;5034703;28;20710;-64
2022/11/27 01:51:23;;;;;;;1.90;1.53;;;5.20;99.90;;;;;;5032260;28;20758;-65
2022/11/27 01:53:51;;;;;;;1.93;1.50;;;5.20;99.90;;;;;;5031676;28;20201;-64
2022/11/27 01:56:19;;;;;;;3.53;1.40;;;5.10;99.90;;;;;;5032193;28;20221;-65
2022/11/27 01:58:47;;;;;;;1.33;1.30;;;5.00;99.90;;;;;;5037024;28;20236;-64
2022/11/27 02:01:15;;;;;;;1.40;1.30;;;5.10;99.90;;;;;;5038919;28;20193;-64
2022/11/27 02:03:42;;;;;;;1.70;1.30;;;5.00;99.90;;;;;;5040836;28;20204;-64
2022/11/27 02:06:12;;;;;;;1.60;1.50;;;5.00;99.90;;;;;;5040270;28;20225;-64
2022/11/27 02:08:39;;;;;;;1.60;1.50;;;5.10;99.90;;;;;;5041885;28;20219;-64
2022/11/27 02:11:12;;;;;;;1.63;1.53;;;5.20;99.90;;;;;;5038307;28;20228;-64
2022/11/27 02:13:45;;;;;;;1.90;1.63;;;5.30;99.90;;;;;;5037121;28;20204;-64
2022/11/27 02:16:23;;;;;;;2.70;2.00;;;5.30;99.90;;;;;;5044251;28;20293;-64
2022/11/27 02:18:57;;;;;;;1.77;1.67;;;5.50;99.90;;;;;;5041435;28;20232;-64
2022/11/27 02:21:33;;;;;;;2.10;2.00;;;5.60;99.90;;;;;;5034432;28;20196;-63
2022/11/27 02:24:30;;;;;;;2.50;2.30;;;5.60;99.90;;;;;;5034388;28;20208;-64
2022/11/27 02:27:25;;;;;;;2.90;2.70;;;5.60;99.90;;;;;;5032520;28;20324;-63
2022/11/27 02:29:56;;;;;;;2.60;2.40;;;5.60;99.90;;;;;;5026921;28;20204;-64
2022/11/27 02:32:29;;;;;;;2.63;2.43;;;5.60;99.90;;;;;;5030494;28;20230;-63
2022/11/27 02:35:01;;;;;;;2.10;2.00;;;5.70;99.90;;;;;;5030627;28;20201;-63
2022/11/27 02:37:35;;;;;;;1.83;1.73;;;5.70;99.90;;;;;;5031966;28;20288;-66
2022/11/27 02:40:08;;;;;;;1.87;1.53;;;5.60;99.90;;;;;;5027664;28;20700;-64
2022/11/27 02:42:41;;;;;;;3.33;1.60;;;5.40;99.90;;;;;;5028731;28;20235;-64
2022/11/27 02:45:12;;;;;;;1.97;1.50;;;5.20;99.90;;;;;;5031002;28;20311;-64
2022/11/27 02:47:41;;;;;;;1.40;1.30;;;5.00;99.90;;;;;;5031726;28;20841;-64
2022/11/27 02:50:12;;;;;;;2.17;1.80;;;5.00;99.90;;;;;;5030864;28;20200;-64
2022/11/27 02:52:39;;;;;;;7.40;2.07;;;5.00;99.90;;;;;;5030044;28;20230;-65
2022/11/27 02:55:10;;;;;;;1.80;1.70;;;4.90;99.90;;;;;;5033199;28;20326;-64
2022/11/27 02:57:38;;;;;;;2.97;2.20;;;4.90;99.90;;;;;;5034619;28;20201;-64
2022/11/27 03:00:07;;;;;;;2.33;1.93;;;5.00;99.90;;;;;;5036106;28;20228;-66
2022/11/27 03:02:41;;;;;;;4.60;2.37;;;4.80;99.90;;;;;;5033786;28;20258;-65
2022/11/27 03:05:13;;;;;;;7.83;2.33;;;4.70;99.90;;;;;;5034715;28;20225;-66
2022/11/27 03:07:43;;;;;;;7.17;2.30;;;4.70;99.90;;;;;;5037893;28;20574;-66
2022/11/27 03:10:18;;;;;;;2.43;2.23;;;4.70;99.90;;;;;;5037454;28;20207;-66
2022/11/27 03:12:45;;;;;;;2.30;2.03;;;4.70;99.90;;;;;;5032775;28;20706;-65
2022/11/27 03:15:12;;;;;;;10.73;3.57;;;4.70;99.90;;;;;;5033536;28;20228;-65
2022/11/27 03:17:52;;;;;;;2.70;2.33;;;4.70;99.90;;;;;;5033506;28;20203;-66
2022/11/27 03:20:23;;;;;;;2.40;2.20;;;4.70;99.90;;;;;;5034379;28;20201;-64
2022/11/27 03:22:52;;;;;;;4.73;2.37;;;4.70;99.90;;;;;;5034077;28;20193;-65
2022/11/27 03:25:19;;;;;;;6.63;2.63;;;4.60;99.90;;;;;;5033013;28;20591;-66
2022/11/27 03:27:48;;;;;;;4.13;1.90;;;4.70;99.90;;;;;;5033448;28;20254;-64
2022/11/27 03:30:15;;;;;;;8.10;2.90;;;4.80;99.90;;;;;;5034255;28;20215;-66
2022/11/27 03:32:44;;;;;;;3.63;2.37;;;4.70;99.90;;;;;;5034541;28;20260;-65
2022/11/27 03:35:14;;;;;;;6.00;2.70;;;4.70;99.90;;;;;;5034041;28;20260;-66
2022/11/27 03:37:41;;;;;;;7.43;2.50;;;4.70;99.90;;;;;;5034404;28;20204;-63
2022/11/27 03:40:09;;;;;;;2.33;1.93;;;4.60;99.90;;;;;;5033867;28;20216;-64
2022/11/27 03:42:46;;;;;;;1.50;1.50;;;4.60;99.90;;;;;;5033415;28;20223;-65
2022/11/27 03:45:21;;;;;;;2.33;1.40;;;4.50;99.90;;;;;;5032235;28;20639;-67
2022/11/27 03:48:02;;;;;;;1.73;1.30;;;4.50;99.90;;;;;;5028774;28;20576;-64
2022/11/27 03:50:41;;;;;;;1.47;1.37;;;4.50;99.90;;;;;;5028779;28;20291;-64
2022/11/27 03:53:17;;;;;;;1.47;1.37;;;4.50;99.90;;;;;;5033351;28;20718;-67
2022/11/27 03:55:53;;;;;;;1.47;1.37;;;4.50;99.90;;;;;;5033146;28;20258;-65
2022/11/27 03:58:24;;;;;;;1.67;1.33;;;4.60;99.90;;;;;;5033090;28;20669;-63
2022/11/27 04:00:53;;;;;;;1.80;1.70;;;4.70;99.90;;;;;;5033362;28;20201;-66
2022/11/27 04:03:25;;;;;;;1.80;1.70;;;4.80;99.90;;;;;;5033391;28;20205;-66
2022/11/27 04:05:52;;;;;;;1.80;1.70;;;4.80;99.90;;;;;;5036708;28;20937;-65
2022/11/27 04:08:19;;;;;;;1.90;1.80;;;4.90;99.90;;;;;;5036785;28;20520;-66
2022/11/27 04:10:46;;;;;;;1.80;1.63;;;4.90;99.90;;;;;;5033089;28;20208;-65
2022/11/27 04:13:13;;;;;;;1.83;1.73;;;5.00;99.90;;;;;;5033382;28;20251;-64
2022/11/27 04:15:40;;;;;;;1.67;1.57;;;4.90;99.90;;;;;;5033050;28;20221;-66
2022/11/27 04:18:07;;;;;;;1.60;1.50;;;5.00;99.90;;;;;;5033153;28;20688;-65
2022/11/27 04:20:35;;;;;;;1.70;1.60;;;5.00;99.90;;;;;;5032567;28;20201;-66
2022/11/27 04:23:02;;;;;;;1.53;1.43;;;5.00;99.90;;;;;;5032941;28;20251;-66
2022/11/27 04:25:29;;;;;;;1.33;1.30;;;5.00;99.90;;;;;;5032168;28;20778;-64
2022/11/27 04:27:56;;;;;;;2.87;2.60;;;5.10;99.90;;;;;;5032856;28;20204;-65
2022/11/27 04:30:23;;;;;;;3.30;3.07;;;5.20;99.90;;;;;;5032978;28;20923;-64
2022/11/27 04:32:50;;;;;;;3.13;2.93;;;5.20;99.90;;;;;;5028062;28;20593;-65
2022/11/27 04:35:17;;;;;;;3.50;3.20;;;5.10;99.90;;;;;;5030412;28;20316;-65
2022/11/27 04:37:46;;;;;;;3.40;3.10;;;5.10;99.90;;;;;;5022406;28;20216;-63
2022/11/27 04:40:13;;;;;;;3.03;2.83;;;4.90;99.90;;;;;;5027034;28;20206;-64
2022/11/27 04:42:40;;;;;;;4.03;2.53;;;4.90;99.90;;;;;;5026243;28;20672;-65
2022/11/27 04:45:08;;;;;;;3.30;3.10;;;4.90;99.90;;;;;;5013827;28;20300;-64
2022/11/27 04:47:35;;;;;;;2.60;2.40;;;4.90;99.90;;;;;;5026211;28;20213;-63
2022/11/27 04:50:09;;;;;;;2.20;2.10;;;4.90;99.90;;;;;;5022150;28;20957;-64
2022/11/27 04:52:46;;;;;;;2.30;2.20;;;5.00;99.90;;;;;;5025118;28;20217;-64
2022/11/27 04:55:19;;;;;;;2.53;2.33;;;5.10;99.90;;;;;;5031924;28;20545;-64
2022/11/27 04:57:53;;;;;;;2.20;2.10;;;5.20;99.90;;;;;;5024317;28;20574;-63
2022/11/27 05:00:28;;;;;;;2.70;2.50;;;5.20;99.90;;;;;;5022893;28;20307;-64
2022/11/27 05:03:00;;;;;;;2.40;2.30;;;5.20;99.90;;;;;;5019268;28;20292;-65
2022/11/27 05:05:39;;;;;;;2.60;2.50;;;5.20;99.90;;;;;;5022463;28;21111;-65
2022/11/27 05:08:08;;;;;;;2.83;2.53;;;5.20;99.90;;;;;;5019861;28;20211;-65
2022/11/27 05:10:45;;;;;;;2.63;2.50;;;5.20;99.90;;;;;;5027796;28;20201;-64
2022/11/27 05:13:15;;;;;;;1.90;1.80;;;5.20;99.90;;;;;;5021917;28;20223;-64
2022/11/27 05:15:48;;;;;;;1.67;1.57;;;5.10;99.90;;;;;;5025555;28;20711;-65
2022/11/27 05:18:15;;;;;;;1.50;1.40;;;4.90;99.90;;;;;;5030990;28;20220;-65
2022/11/27 05:20:45;;;;;;;1.57;1.47;;;4.80;99.90;;;;;;5026993;28;20209;-65
2022/11/27 05:23:15;;;;;;;2.10;1.90;;;4.70;99.90;;;;;;5030622;28;20258;-70
2022/11/27 05:25:52;;;;;;;1.70;1.60;;;4.80;99.90;;;;;;5017422;28;20650;-65
2022/11/27 05:28:23;;;;;;;1.60;1.50;;;4.70;99.90;;;;;;5027322;28;20746;-64
2022/11/27 05:30:56;;;;;;;1.60;1.50;;;4.70;99.90;;;;;;5024303;28;20224;-65
2022/11/27 05:33:23;;;;;;;1.83;1.73;;;4.70;99.90;;;;;;5032259;28;20750;-65
2022/11/27 05:35:53;;;;;;;1.83;1.73;;;4.70;99.90;;;;;;5028085;28;20863;-64
2022/11/27 05:38:20;;;;;;;1.93;1.83;;;4.70;99.90;;;;;;5026753;28;20216;-63
2022/11/27 05:40:49;;;;;;;2.70;2.50;;;4.70;99.90;;;;;;5029987;28;20204;-65
2022/11/27 05:43:15;;;;;;;2.73;2.53;;;4.70;99.90;;;;;;5026077;28;20280;-64
2022/11/27 05:45:42;;;;;;;2.60;2.40;;;4.70;99.90;;;;;;5031969;28;20224;-64
2022/11/27 05:48:09;;;;;;;3.00;2.80;;;4.80;99.90;;;;;;5035359;28;20225;-65
2022/11/27 05:50:36;;;;;;;2.53;2.33;;;4.80;99.90;;;;;;5033520;28;20201;-63
2022/11/27 05:53:03;;;;;;;2.77;2.57;;;4.80;99.90;;;;;;5027138;28;20229;-62
2022/11/27 05:55:30;;;;;;;2.97;2.77;;;4.90;99.90;;;;;;5024276;28;20251;-64
2022/11/27 05:57:58;;;;;;;2.63;2.43;;;4.90;99.90;;;;;;5027961;28;20215;-63
2022/11/27 06:00:26;;;;;;;2.70;2.50;;;5.00;99.90;;;;;;5024104;28;20200;-64
2022/11/27 06:02:53;;;;;;;3.00;2.80;;;5.10;99.90;;;;;;5023773;28;20201;-64
2022/11/27 06:05:19;;;;;;;2.60;2.40;;;5.10;99.90;;;;;;5015473;28;20311;-64
2022/11/27 06:07:46;;;;;;;2.90;2.70;;;5.20;99.90;;;;;;5023597;28;20205;-64
2022/11/27 06:10:13;;;;;;;2.23;2.13;;;5.20;99.90;;;;;;5024079;28;20197;-64
2022/11/27 06:12:40;;;;;;;1.70;1.60;;;5.20;99.90;;;;;;5027096;28;20231;-63
2022/11/27 06:15:09;;;;;;;1.80;1.70;;;5.10;99.90;;;;;;5022762;28;20256;-65
2022/11/27 06:17:36;;;;;;;2.10;2.00;;;5.10;99.90;;;;;;5023019;28;20283;-63
2022/11/27 06:20:03;;;;;;;2.10;1.90;;;5.10;99.90;;;;;;5023093;28;20228;-63
2022/11/27 06:22:30;;;;;;;1.50;1.50;;;5.00;99.90;;;;;;5022844;28;20196;-64
2022/11/27 06:24:57;;;;;;;2.33;2.23;;;5.00;99.90;;;;;;5022312;28;20243;-64
2022/11/27 06:27:24;;;;;;;2.20;2.10;;;4.90;99.90;;;;;;5022491;28;20291;-64
2022/11/27 06:29:51;;;;;;;2.10;2.00;;;4.80;99.90;;;;;;5022445;28;20299;-64
2022/11/27 06:32:20;;;;;;;1.70;1.60;;;4.80;99.90;;;;;;5019726;28;20224;-64
2022/11/27 06:34:46;;;;;;;2.10;2.00;;;4.70;99.90;;;;;;5024040;28;20311;-64
2022/11/27 06:37:13;;;;;;;2.13;2.03;;;4.70;99.90;;;;;;5020738;28;20239;-63
2022/11/27 06:39:40;;;;;;;2.83;2.63;;;4.70;99.90;;;;;;5023809;28;20535;-64
2022/11/27 06:42:07;;;;;;;2.60;2.40;;;4.70;99.90;;;;;;5021471;28;20211;-64
2022/11/27 06:44:34;;;;;;;2.30;2.20;;;4.60;99.90;;;;;;5019023;28;20213;-63
2022/11/27 06:47:01;;;;;;;2.00;1.90;;;4.60;99.90;;;;;;5024713;28;20792;-64
2022/11/27 06:49:29;;;;;;;2.30;2.20;;;4.70;99.90;;;;;;5019024;28;20623;-63
2022/11/27 06:51:56;;;;;;;1.83;1.73;;;4.80;99.90;;;;;;5025067;28;20204;-65
2022/11/27 06:54:23;;;;;;;2.13;2.03;;;4.80;99.90;;;;;;5018980;28;20233;-63
2022/11/27 06:56:50;;;;;;;2.33;2.23;;;4.70;99.90;;;;;;5025032;28;20714;-62
2022/11/27 06:59:18;;;;;;;2.30;2.20;;;4.70;99.90;;;;;;5020360;28;20205;-64
2022/11/27 07:01:45;;;;;;;2.30;2.20;;;4.70;99.90;;;;;;5013493;28;20288;-64
2022/11/27 07:04:14;;;;;;;1.83;1.73;;;4.90;99.90;;;;;;5021426;28;20202;-63
2022/11/27 07:06:43;;;;;;;1.63;1.53;;;5.00;99.90;;;;;;5024772;28;20295;-63
2022/11/27 07:09:10;;;;;;;1.40;1.40;;;5.00;99.90;;;;;;5020654;28;20209;-63
2022/11/27 07:11:38;;;;;;;1.90;1.80;;;5.00;99.90;;;;;;5026999;28;20288;-63
2022/11/27 07:14:06;;;;;;;1.80;1.70;;;4.90;99.90;;;;;;5020166;28;20231;-64
2022/11/27 07:16:35;;;;;;;1.93;1.83;;;5.00;99.90;;;;;;5017493;28;20724;-64
2022/11/27 07:19:04;;;;;;;2.07;1.97;;;5.00;99.90;;;;;;5019002;28;20235;-64
2022/11/27 07:21:32;;;;;;;2.20;2.00;;;5.10;99.90;;;;;;5022005;28;20292;-64
2022/11/27 07:24:01;;;;;;;1.90;1.80;;;5.20;99.90;;;;;;5019020;28;20200;-63
2022/11/27 07:26:29;;;;;;;2.30;2.20;;;5.20;99.90;;;;;;5016542;28;20307;-63
2022/11/27 07:28:56;;;;;;;2.50;2.30;;;5.20;99.90;;;;;;5019625;28;20575;-63
2022/11/27 07:31:26;;;;;;;3.07;2.77;;;5.20;99.90;;;;;;5021907;28;20687;-63
2022/11/27 07:33:54;;;;;;;3.00;2.80;;;5.20;99.90;;;;;;5017435;28;20300;-63
2022/11/27 07:36:22;;;;;;;3.10;2.90;;;5.20;99.90;;;;;;5021587;28;20327;-63
2022/11/27 07:38:50;;;;;;;2.97;2.80;;;5.20;99.90;;;;;;5020324;28;20616;-63
2022/11/27 07:41:19;;;;;;;2.27;2.17;;;5.20;99.90;;;;;;5023283;28;20597;-64
2022/11/27 07:43:46;;;;;;;2.13;2.03;;;5.40;99.90;;;;;;5026524;28;20233;-65
2022/11/27 07:46:14;;;;;;;2.20;2.10;;;5.50;99.90;;;;;;5023909;28;20222;-64
2022/11/27 07:48:41;;;;;;;2.40;2.20;;;5.50;99.90;;;;;;5025266;28;20203;-64
2022/11/27 07:51:12;;;;;;;2.20;2.10;;;5.50;99.90;;;;;;5019089;28;20304;-64
2022/11/27 07:53:40;;;;;;;2.40;2.23;;;5.50;99.90;;;;;;5030167;28;20337;-65
2022/11/27 07:56:09;;;;;;;2.30;2.20;;;5.60;99.90;;;;;;5029533;28;20598;-63
2022/11/27 07:58:37;;;;;;;2.07;1.97;;;5.60;99.90;;;;;;5028014;28;20288;-64
2022/11/27 08:01:07;;;;;;;2.50;2.40;;;5.60;99.90;;;;;;5025136;28;20200;-64
2022/11/27 08:03:34;;;;;;;2.20;2.10;;;5.60;99.90;;;;;;5022513;28;20201;-64
2022/11/27 08:06:01;;;;;;;2.27;2.17;;;5.60;99.90;;;;;;5029257;28;20327;-64
2022/11/27 08:08:27;;;;;;;2.20;2.10;;;5.60;99.90;;;;;;5021493;28;20741;-62
2022/11/27 08:10:54;;;;;;;2.00;1.90;;;5.70;99.90;;;;;;5020283;28;20212;-63
2022/11/27 08:13:21;;;;;;;2.50;2.40;;;5.70;99.90;;;;;;5028036;28;20231;-63
2022/11/27 08:15:49;;;;;;;2.23;2.13;;;5.80;99.90;;;;;;5022021;28;20308;-63
2022/11/27 08:18:16;;;;;;;2.03;1.93;;;5.80;99.90;;;;;;5030399;28;20287;-64
2022/11/27 08:20:43;;;;;;;2.30;2.20;;;5.90;99.90;;;;;;5024724;28;20198;-63
2022/11/27 08:23:10;;;;;;;2.50;2.40;;;5.90;99.90;;;;;;5022800;28;20213;-64
2022/11/27 08:25:38;;;;;;;2.73;2.63;;;5.90;99.90;;;;;;5024107;28;20702;-63
2022/11/27 08:28:05;;;;;;;2.33;2.23;;;5.80;99.90;;;;;;5023436;28;20205;-64
2022/11/27 08:30:31;;;;;;;2.97;2.77;;;6.00;99.90;;;;;;5025710;28;20567;-63
2022/11/27 08:33:00;;;;;;;2.57;2.40;;;5.90;99.90;;;;;;5021304;28;20666;-63
2022/11/27 08:35:27;;;;;;;2.70;2.60;;;5.80;99.90;;;;;;5021162;28;20229;-64
2022/11/27 08:37:54;;;;;;;2.30;2.20;;;5.70;99.90;;;;;;5021315;28;20228;-64
2022/11/27 08:40:21;;;;;;;2.63;2.53;;;5.70;99.90;;;;;;5024130;28;20201;-64
2022/11/27 08:42:48;;;;;;;2.97;2.80;;;5.90;99.90;;;;;;5023577;28;20770;-64
2022/11/27 08:45:14;;;;;;;2.93;2.73;;;5.90;99.90;;;;;;5023693;28;20285;-64
2022/11/27 08:47:42;;;;;;;3.17;2.97;;;5.80;99.90;;;;;;5024718;28;20223;-63
2022/11/27 08:50:11;;;;;;;3.57;3.37;;;5.70;99.90;;;;;;5012719;28;20305;-64
2022/11/27 08:52:38;;;;;;;3.33;3.13;;;5.80;99.90;;;;;;5009696;28;20263;-64
2022/11/27 08:55:05;;;;;;;3.27;3.07;;;5.90;99.90;;;;;;5013063;28;20229;-64
2022/11/27 08:57:32;;;;;;;3.00;2.80;;;5.90;99.90;;;;;;5016793;28;20209;-63
2022/11/27 08:59:59;;;;;;;2.97;2.77;;;5.70;99.90;;;;;;5016395;28;20228;-64
2022/11/27 09:02:26;;;;;;;2.90;2.80;;;5.60;99.90;;;;;;5010111;28;20209;-64
2022/11/27 09:04:53;;;;;;;2.83;2.73;;;5.60;99.90;;;;;;5014656;28;20281;-64
2022/11/27 09:07:21;;;;;;;3.00;2.80;;;5.50;99.90;;;;;;5012476;28;20209;-63
2022/11/27 09:09:48;;;;;;;3.03;2.83;;;5.40;99.90;;;;;;5012928;28;20288;-64
2022/11/27 09:12:14;;;;;;;2.77;2.67;;;5.40;99.90;;;;;;5016220;28;20205;-64
2022/11/27 09:14:41;;;;;;;3.27;3.07;;;5.50;99.90;;;;;;5021371;28;20221;-63
2022/11/27 09:17:08;;;;;;;3.33;3.13;;;5.40;99.90;;;;;;5023827;28;20339;-66
2022/11/27 09:19:35;;;;;;;2.90;2.70;;;5.50;99.90;;;;;;5018891;28;20298;-65
2022/11/27 09:22:02;;;;;;;3.10;2.90;;;5.60;99.90;;;;;;5015722;28;20202;-63
2022/11/27 09:24:30;;;;;;;2.93;2.73;;;5.60;99.90;;;;;;5028176;28;20200;-63
2022/11/27 09:26:57;;;;;;;2.47;2.37;;;5.70;99.90;;;;;;5029331;28;20228;-64
2022/11/27 09:29:24;;;;;;;2.83;2.63;;;5.70;99.90;;;;;;5018985;28;20322;-63
2022/11/27 09:31:51;;;;;;;3.00;2.80;;;5.90;99.90;;;;;;5017343;28;20275;-65
2022/11/27 09:34:18;;;;;;;2.70;2.60;;;6.20;99.90;;;;;;5015715;28;20232;-64
2022/11/27 09:36:45;;;;;;;2.97;2.80;;;6.30;99.90;;;;;;5018015;28;20243;-65
2022/11/27 09:39:14;;;;;;;2.47;2.37;;;6.40;99.90;;;;;;5017959;28;20259;-66
2022/11/27 09:41:49;;;;;;;1.93;1.83;;;6.50;99.90;;;;;;5003991;28;20206;-66
2022/11/27 09:44:27;;;;;;;2.10;2.00;;;6.40;99.90;;;;;;5014037;28;20196;-64
2022/11/27 09:46:56;;;;;;;2.00;1.90;;;6.40;99.90;;;;;;5013639;28;20227;-64
2022/11/27 09:49:26;;;;;;;2.17;2.07;;;6.50;99.90;;;;;;5013367;28;20288;-66
2022/11/27 09:51:58;;;;;;;2.30;2.20;;;6.70;99.90;;;;;;5017344;28;20295;-65
2022/11/27 09:54:30;;;;;;;2.40;2.30;;;6.90;99.90;;;;;;5013760;28;20221;-64
2022/11/27 09:56:59;;;;;;;2.17;2.07;;;7.00;99.90;;;;;;5023819;28;20643;-65
2022/11/27 09:59:33;;;;;;;2.13;2.03;;;7.00;99.90;;;;;;5023572;28;20293;-66
2022/11/27 10:02:00;;;;;;;2.33;2.23;;;7.10;99.90;;;;;;5018293;28;20200;-65
2022/11/27 10:04:27;;;;;;;2.47;2.37;;;7.20;99.90;;;;;;5013114;28;20198;-64
2022/11/27 10:07:16;;;;;;;2.00;1.90;;;7.20;99.90;;;;;;5012518;28;20251;-65
2022/11/27 10:09:58;;;;;;;2.10;2.00;;;7.20;99.90;;;;;;5006958;28;20336;-66
2022/11/27 10:12:35;;;;;;;2.03;1.93;;;7.30;99.90;;;;;;5011392;28;20233;-64
2022/11/27 10:15:07;;;;;;;2.17;2.07;;;7.20;99.90;;;;;;5011286;28;20252;-65
2022/11/27 10:17:39;;;;;;;2.00;1.90;;;7.20;99.90;;;;;;5009839;28;20307;-66
2022/11/27 10:20:18;;;;;;;2.30;2.20;;;7.30;99.90;;;;;;5011651;28;20692;-66
2022/11/27 10:22:52;;;;;;;2.00;1.90;;;7.20;99.90;;;;;;5010797;28;20201;-64
2022/11/27 10:25:20;;;;;;;2.30;2.20;;;7.20;99.90;;;;;;5011961;28;20322;-63
2022/11/27 10:28:02;;;;;;;2.50;2.30;;;7.20;99.90;;;;;;5009883;28;20204;-66
2022/11/27 10:30:31;;;;;;;2.83;2.63;;;7.20;99.90;;;;;;5005702;28;20296;-63
2022/11/27 10:33:00;;;;;;;2.40;2.30;;;7.30;99.90;;;;;;5011065;28;20287;-66
2022/11/27 10:35:30;;;;;;;2.40;2.30;;;7.40;99.90;;;;;;5010752;28;20586;-65
2022/11/27 10:38:01;;;;;;;2.50;2.40;;;7.50;99.90;;;;;;5029410;28;20296;-65
2022/11/27 10:40:33;;;;;;;2.67;2.57;;;7.60;99.90;;;;;;5023551;28;20303;-66
2022/11/27 10:43:10;;;;;;;3.03;2.83;;;7.70;99.90;;;;;;5029644;28;20734;-63
2022/11/27 10:45:44;;;;;;;2.73;2.63;;;7.70;99.90;;;;;;5030560;28;20319;-64
2022/11/27 10:48:11;;;;;;;2.97;2.80;;;7.70;99.90;;;;;;5028961;28;20201;-64
2022/11/27 10:50:40;;;;;;;2.70;2.60;;;7.80;99.90;;;;;;5030246;28;20201;-66
2022/11/27 10:53:09;;;;;;;2.80;2.70;;;7.70;99.90;;;;;;5030650;28;20231;-63
2022/11/27 10:55:50;;;;;;;3.50;3.20;;;7.80;99.90;;;;;;5029776;28;20335;-64
2022/11/27 10:58:25;;;;;;;2.50;2.40;;;7.80;99.90;;;;;;5028839;28;20299;-63
2022/11/27 11:01:01;;;;;;;2.20;2.10;;;7.80;99.90;;;;;;5028970;28;20208;-63
2022/11/27 11:03:27;;;;;;;2.30;2.20;;;7.80;99.90;;;;;;5033159;28;20264;-63
2022/11/27 11:05:58;;;;;;;2.83;2.63;;;7.80;99.90;;;;;;5033969;28;20323;-63
2022/11/27 11:08:25;;;;;;;3.40;3.20;;;7.70;99.90;;;;;;5035998;28;20342;-62
2022/11/27 11:10:54;;;;;;;3.03;2.70;;;7.60;99.90;;;;;;5030225;28;20247;-63
2022/11/27 11:13:26;;;;;;;3.20;3.00;;;7.50;99.90;;;;;;5029074;28;20834;-64
2022/11/27 11:15:58;;;;;;;2.90;2.70;;;7.20;99.90;;;;;;5027798;28;20616;-62
2022/11/27 11:18:27;;;;;;;3.10;2.90;;;7.10;99.90;;;;;;5032914;28;20215;-63
2022/11/27 11:20:57;;;;;;;2.53;2.43;;;7.10;99.90;;;;;;5033662;28;20204;-62
2022/11/27 11:23:29;;;;;;;2.30;2.20;;;7.20;99.90;;;;;;5035085;28;20570;-62
2022/11/27 11:26:01;;;;;;;2.37;2.27;;;7.20;99.90;;;;;;5043912;28;20231;-64
2022/11/27 11:28:30;;;;;;;2.03;1.93;;;7.20;99.90;;;;;;5043075;28;20653;-63
2022/11/27 11:31:01;;;;;;;2.47;2.37;;;7.20;99.90;;;;;;5045883;28;20224;-62
2022/11/27 11:33:28;;;;;;;2.43;2.33;;;7.30;99.90;;;;;;5047376;28;20287;-63
2022/11/27 11:36:01;;;;;;;2.30;2.20;;;7.20;99.90;;;;;;5038805;28;20247;-63
2022/11/27 11:38:32;;;;;;;1.80;1.70;;;7.20;99.90;;;;;;5026154;28;20213;-62
2022/11/27 11:41:02;;;;;;;1.40;1.40;;;7.20;99.90;;;;;;5029925;28;20589;-62
2022/11/27 11:43:34;;;;;;;1.40;1.40;;;7.30;99.90;;;;;;5010603;28;20284;-63
2022/11/27 11:46:07;;;;;;;2.87;2.77;;;7.50;99.90;;;;;;5022353;28;20596;-62
2022/11/27 11:48:34;;;;;;;2.30;2.20;;;7.60;99.90;;;;;;5029915;28;20239;-63
2022/11/27 11:51:04;;;;;;;2.10;2.00;;;7.80;99.90;;;;;;5021024;28;20201;-63
2022/11/27 11:53:36;;;;;;;1.90;1.80;;;8.00;99.90;;;;;;5026781;28;20205;-63
2022/11/27 11:56:16;;;;;;;1.90;1.80;;;8.10;99.90;;;;;;5022137;28;20289;-64
2022/11/27 11:58:53;;;;;;;1.80;1.70;;;8.20;99.90;;;;;;5011316;28;20197;-63
2022/11/27 12:01:52;;;;;;;1.80;1.70;;;8.30;99.90;;;;;;5011594;28;20580;-63
2022/11/27 12:04:47;;;;;;;1.97;1.87;;;8.40;99.90;;;;;;5024488;28;20205;-63
2022/11/27 12:07:26;;;;;;;1.63;1.53;;;8.40;99.90;;;;;;5023456;28;20285;-63
2022/11/27 12:10:03;;;;;;;1.87;1.77;;;8.50;99.90;;;;;;5024381;28;20211;-63
2022/11/27 12:12:45;;;;;;;1.57;1.50;;;8.60;99.90;;;;;;5025994;28;20599;-63
2022/11/27 12:15:23;;;;;;;1.80;1.70;;;8.60;99.90;;;;;;5016322;28;20312;-64
2022/11/27 12:17:59;;;;;;;1.70;1.60;;;8.60;99.90;;;;;;5035957;28;20196;-63
2022/11/27 12:20:38;;;;;;;1.80;1.70;;;8.60;99.90;;;;;;5020820;28;20193;-62
2022/11/27 12:23:31;;;;;;;2.17;2.07;;;8.60;99.90;;;;;;5018369;28;20628;-62
2022/11/27 12:26:07;;;;;;;1.80;1.70;;;8.60;99.90;;;;;;5020872;28;20264;-63
2022/11/27 12:29:03;;;;;;;1.70;1.60;;;8.70;99.90;;;;;;5023349;28;20204;-63
2022/11/27 12:31:44;;;;;;;1.50;1.50;;;8.70;99.90;;;;;;5017214;28;20212;-65
2022/11/27 12:34:30;;;;;;;2.10;2.00;;;8.70;99.90;;;;;;5015079;28;20275;-64
2022/11/27 12:37:14;;;;;;;1.70;1.60;;;8.70;99.90;;;;;;5034194;28;20228;-64
2022/11/27 12:39:54;;;;;;;1.60;1.60;;;8.80;99.90;;;;;;5035946;28;20279;-63
2022/11/27 12:42:27;;;;;;;1.83;1.73;;;8.70;99.90;;;;;;5035701;28;20674;-65
2022/11/27 12:45:02;;;;;;;1.77;1.67;;;8.80;99.90;;;;;;5035360;28;20216;-65
2022/11/27 12:47:38;;;;;;;1.90;1.80;;;8.80;99.90;;;;;;5037216;28;20192;-63
2022/11/27 12:50:14;;;;;;;1.93;1.83;;;8.90;99.90;;;;;;5038284;28;20246;-63
2022/11/27 12:52:44;;;;;;;2.37;2.27;;;8.90;99.90;;;;;;5029795;28;20212;-63
2022/11/27 12:55:15;;;;;;;3.43;2.30;;;8.90;99.90;;;;;;5037075;28;20239;-62
2022/11/27 12:57:47;;;;;;;2.63;2.53;;;8.80;99.90;;;;;;5037146;28;20665;-62
2022/11/27 13:00:16;;;;;;;2.13;2.03;;;8.80;99.90;;;;;;5036322;28;20218;-62
2022/11/27 13:02:55;;;;;;;2.50;2.33;;;8.70;99.90;;;;;;5034895;28;20303;-64
2022/11/27 13:05:26;;;;;;;1.93;1.83;;;8.70;99.90;;;;;;5027683;28;20696;-64
2022/11/27 13:07:58;;;;;;;1.93;1.83;;;8.70;99.90;;;;;;5034185;28;20197;-63
2022/11/27 13:10:31;;;;;;;2.20;2.10;;;8.50;99.90;;;;;;5031979;28;20209;-63
2022/11/27 13:13:04;;;;;;;1.70;1.60;;;8.30;99.90;;;;;;5033091;28;20200;-63